sensor_id;sensor_type;location;lat;lon;timestamp;P1;durP1;ratioP1;P2;durP2;ratioP2
12966;SDS011;6548;49.996;8.238;2022-09-29T00:00:54;6.13;;;4.00;;
12966;SDS011;6548;49.996;8.238;2022-09-29T00:03:20;5.68;;;3.75;;
12966;SDS011;6548;49.996;8.238;2022-09-29T00:05:47;6.82;;;3.63;;
12966;SDS011;6548;49.996;8.238;2022-09-29T00:08:17;7.53;;;3.83;;
12966;SDS011;6548;49.996;8.238;2022-09-29T00:10:44;5.68;;;3.80;;
12966;SDS011;6548;49.996;8.238;2022-09-29T00:13:11;4.65;;;2.90;;
12966;SDS011;6548;49.996;8.238;2022-09-29T00:15:36;6.88;;;3.83;;
12966;SDS011;6548;49.996;8.238;2022-09-29T00:18:02;6.47;;;4.15;;
12966;SDS011;6548;49.996;8.238;2022-09-29T00:20:28;4.63;;;2.90;;
12966;SDS011;6548;49.996;8.238;2022-09-29T00:22:54;8.43;;;3.00;;
12966;SDS011;6548;49.996;8.238;2022-09-29T00:25:19;3.95;;;3.55;;
12966;SDS011;6548;49.996;8.238;2022-09-29T00:27:45;4.93;;;3.20;;
12966;SDS011;6548;49.996;8.238;2022-09-29T00:30:11;6.32;;;3.13;;
12966;SDS011;6548;49.996;8.238;2022-09-29T00:32:36;5.00;;;3.78;;
12966;SDS011;6548;49.996;8.238;2022-09-29T00:35:02;5.93;;;2.92;;
12966;SDS011;6548;49.996;8.238;2022-09-29T00:37:28;4.97;;;3.35;;
12966;SDS011;6548;49.996;8.238;2022-09-29T00:39:53;5.78;;;2.78;;
12966;SDS011;6548;49.996;8.238;2022-09-29T00:42:19;5.85;;;2.88;;
12966;SDS011;6548;49.996;8.238;2022-09-29T00:45:03;5.25;;;3.50;;
12966;SDS011;6548;49.996;8.238;2022-09-29T00:47:38;3.78;;;3.28;;
12966;SDS011;6548;49.996;8.238;2022-09-29T00:50:27;4.35;;;2.58;;
12966;SDS011;6548;49.996;8.238;2022-09-29T00:53:07;5.30;;;3.70;;
12966;SDS011;6548;49.996;8.238;2022-09-29T00:55:58;5.80;;;3.45;;
12966;SDS011;6548;49.996;8.238;2022-09-29T00:58:36;6.07;;;3.70;;
12966;SDS011;6548;49.996;8.238;2022-09-29T01:01:18;5.30;;;3.40;;
12966;SDS011;6548;49.996;8.238;2022-09-29T01:03:45;3.90;;;2.72;;
12966;SDS011;6548;49.996;8.238;2022-09-29T01:06:14;5.53;;;3.28;;
12966;SDS011;6548;49.996;8.238;2022-09-29T01:08:53;6.30;;;2.83;;
12966;SDS011;6548;49.996;8.238;2022-09-29T01:11:25;3.70;;;3.03;;
12966;SDS011;6548;49.996;8.238;2022-09-29T01:13:51;6.70;;;3.60;;
12966;SDS011;6548;49.996;8.238;2022-09-29T01:16:18;4.93;;;3.00;;
12966;SDS011;6548;49.996;8.238;2022-09-29T01:18:44;3.92;;;3.03;;
12966;SDS011;6548;49.996;8.238;2022-09-29T01:21:21;6.38;;;2.72;;
12966;SDS011;6548;49.996;8.238;2022-09-29T01:24:00;4.38;;;3.22;;
12966;SDS011;6548;49.996;8.238;2022-09-29T01:26:49;5.38;;;3.55;;
12966;SDS011;6548;49.996;8.238;2022-09-29T01:31:59;4.93;;;3.20;;
12966;SDS011;6548;49.996;8.238;2022-09-29T01:40:18;5.32;;;3.40;;
12966;SDS011;6548;49.996;8.238;2022-09-29T01:45:32;3.67;;;2.95;;
12966;SDS011;6548;49.996;8.238;2022-09-29T01:47:59;5.05;;;3.58;;
12966;SDS011;6548;49.996;8.238;2022-09-29T01:50:38;6.10;;;3.70;;
12966;SDS011;6548;49.996;8.238;2022-09-29T01:53:14;4.45;;;3.28;;
12966;SDS011;6548;49.996;8.238;2022-09-29T01:55:46;5.63;;;3.65;;
12966;SDS011;6548;49.996;8.238;2022-09-29T02:01:10;6.60;;;4.32;;
12966;SDS011;6548;49.996;8.238;2022-09-29T02:03:45;6.55;;;3.72;;
12966;SDS011;6548;49.996;8.238;2022-09-29T02:06:20;5.30;;;3.47;;
12966;SDS011;6548;49.996;8.238;2022-09-29T02:11:19;6.55;;;3.58;;
12966;SDS011;6548;49.996;8.238;2022-09-29T02:13:53;6.22;;;3.60;;
12966;SDS011;6548;49.996;8.238;2022-09-29T02:17:10;5.45;;;3.83;;
12966;SDS011;6548;49.996;8.238;2022-09-29T02:19:20;5.70;;;3.78;;
12966;SDS011;6548;49.996;8.238;2022-09-29T02:21:50;4.47;;;2.97;;
12966;SDS011;6548;49.996;8.238;2022-09-29T02:24:18;6.85;;;3.75;;
12966;SDS011;6548;49.996;8.238;2022-09-29T02:26:45;7.43;;;4.35;;
12966;SDS011;6548;49.996;8.238;2022-09-29T02:29:11;4.90;;;3.65;;
12966;SDS011;6548;49.996;8.238;2022-09-29T02:31:38;6.55;;;3.95;;
12966;SDS011;6548;49.996;8.238;2022-09-29T02:34:05;10.30;;;4.05;;
12966;SDS011;6548;49.996;8.238;2022-09-29T02:36:48;4.95;;;3.60;;
12966;SDS011;6548;49.996;8.238;2022-09-29T02:39:42;5.25;;;3.72;;
12966;SDS011;6548;49.996;8.238;2022-09-29T02:42:32;5.72;;;3.55;;
12966;SDS011;6548;49.996;8.238;2022-09-29T02:50:58;5.85;;;3.50;;
12966;SDS011;6548;49.996;8.238;2022-09-29T02:58:53;5.57;;;3.33;;
12966;SDS011;6548;49.996;8.238;2022-09-29T03:01:32;4.15;;;3.13;;
12966;SDS011;6548;49.996;8.238;2022-09-29T03:03:58;4.55;;;3.35;;
12966;SDS011;6548;49.996;8.238;2022-09-29T03:06:24;6.13;;;3.53;;
12966;SDS011;6548;49.996;8.238;2022-09-29T03:08:49;4.22;;;3.50;;
12966;SDS011;6548;49.996;8.238;2022-09-29T03:11:15;5.07;;;3.50;;
12966;SDS011;6548;49.996;8.238;2022-09-29T03:13:41;4.80;;;2.95;;
12966;SDS011;6548;49.996;8.238;2022-09-29T03:16:06;5.97;;;3.35;;
12966;SDS011;6548;49.996;8.238;2022-09-29T03:18:32;6.53;;;3.20;;
12966;SDS011;6548;49.996;8.238;2022-09-29T03:20:57;8.48;;;4.13;;
12966;SDS011;6548;49.996;8.238;2022-09-29T03:23:23;6.57;;;3.15;;
12966;SDS011;6548;49.996;8.238;2022-09-29T03:25:48;4.20;;;2.95;;
12966;SDS011;6548;49.996;8.238;2022-09-29T03:28:14;4.10;;;3.22;;
12966;SDS011;6548;49.996;8.238;2022-09-29T03:30:42;5.65;;;3.08;;
12966;SDS011;6548;49.996;8.238;2022-09-29T03:33:09;7.50;;;3.95;;
12966;SDS011;6548;49.996;8.238;2022-09-29T03:35:35;6.68;;;3.53;;
12966;SDS011;6548;49.996;8.238;2022-09-29T03:38:01;5.03;;;3.28;;
12966;SDS011;6548;49.996;8.238;2022-09-29T03:40:27;7.43;;;4.07;;
12966;SDS011;6548;49.996;8.238;2022-09-29T03:42:52;4.38;;;3.67;;
12966;SDS011;6548;49.996;8.238;2022-09-29T03:45:18;3.80;;;3.10;;
12966;SDS011;6548;49.996;8.238;2022-09-29T03:47:44;6.95;;;3.92;;
12966;SDS011;6548;49.996;8.238;2022-09-29T03:50:09;5.13;;;2.90;;
12966;SDS011;6548;49.996;8.238;2022-09-29T03:52:35;5.65;;;2.85;;
12966;SDS011;6548;49.996;8.238;2022-09-29T03:55:01;5.80;;;3.50;;
12966;SDS011;6548;49.996;8.238;2022-09-29T03:57:26;9.07;;;3.65;;
12966;SDS011;6548;49.996;8.238;2022-09-29T03:59:52;5.70;;;3.50;;
12966;SDS011;6548;49.996;8.238;2022-09-29T04:02:18;8.73;;;3.55;;
12966;SDS011;6548;49.996;8.238;2022-09-29T04:04:44;8.73;;;3.50;;
12966;SDS011;6548;49.996;8.238;2022-09-29T04:07:10;4.03;;;2.83;;
12966;SDS011;6548;49.996;8.238;2022-09-29T04:09:36;7.68;;;3.35;;
12966;SDS011;6548;49.996;8.238;2022-09-29T04:12:02;8.10;;;3.30;;
12966;SDS011;6548;49.996;8.238;2022-09-29T04:14:28;6.28;;;3.45;;
12966;SDS011;6548;49.996;8.238;2022-09-29T04:16:53;4.18;;;3.28;;
12966;SDS011;6548;49.996;8.238;2022-09-29T04:19:19;6.53;;;3.97;;
12966;SDS011;6548;49.996;8.238;2022-09-29T04:21:45;5.93;;;3.88;;
12966;SDS011;6548;49.996;8.238;2022-09-29T04:24:10;9.20;;;4.35;;
12966;SDS011;6548;49.996;8.238;2022-09-29T04:26:36;7.78;;;4.35;;
12966;SDS011;6548;49.996;8.238;2022-09-29T04:29:02;10.48;;;4.25;;
12966;SDS011;6548;49.996;8.238;2022-09-29T04:31:27;11.75;;;4.32;;
12966;SDS011;6548;49.996;8.238;2022-09-29T04:33:53;20.35;;;4.10;;
12966;SDS011;6548;49.996;8.238;2022-09-29T04:36:18;16.02;;;5.53;;
12966;SDS011;6548;49.996;8.238;2022-09-29T04:38:44;20.88;;;4.65;;
12966;SDS011;6548;49.996;8.238;2022-09-29T04:41:10;22.63;;;5.28;;
12966;SDS011;6548;49.996;8.238;2022-09-29T04:43:35;19.58;;;5.28;;
12966;SDS011;6548;49.996;8.238;2022-09-29T04:46:02;25.75;;;4.22;;
12966;SDS011;6548;49.996;8.238;2022-09-29T04:48:29;22.80;;;4.13;;
12966;SDS011;6548;49.996;8.238;2022-09-29T04:50:54;15.93;;;5.38;;
12966;SDS011;6548;49.996;8.238;2022-09-29T04:53:20;22.33;;;4.00;;
12966;SDS011;6548;49.996;8.238;2022-09-29T04:55:45;11.27;;;3.95;;
12966;SDS011;6548;49.996;8.238;2022-09-29T04:58:11;20.58;;;4.70;;
12966;SDS011;6548;49.996;8.238;2022-09-29T05:00:38;22.77;;;7.00;;
12966;SDS011;6548;49.996;8.238;2022-09-29T05:03:04;12.70;;;5.38;;
12966;SDS011;6548;49.996;8.238;2022-09-29T05:05:30;20.15;;;5.40;;
12966;SDS011;6548;49.996;8.238;2022-09-29T05:07:55;17.42;;;5.50;;
12966;SDS011;6548;49.996;8.238;2022-09-29T05:10:23;18.70;;;4.85;;
12966;SDS011;6548;49.996;8.238;2022-09-29T05:12:50;17.73;;;4.97;;
12966;SDS011;6548;49.996;8.238;2022-09-29T05:15:16;22.27;;;4.68;;
12966;SDS011;6548;49.996;8.238;2022-09-29T05:17:43;9.65;;;4.97;;
12966;SDS011;6548;49.996;8.238;2022-09-29T05:20:09;16.77;;;5.88;;
12966;SDS011;6548;49.996;8.238;2022-09-29T05:22:35;21.52;;;7.35;;
12966;SDS011;6548;49.996;8.238;2022-09-29T05:25:01;10.38;;;6.80;;
12966;SDS011;6548;49.996;8.238;2022-09-29T05:27:26;10.23;;;4.70;;
12966;SDS011;6548;49.996;8.238;2022-09-29T05:29:52;13.25;;;4.82;;
12966;SDS011;6548;49.996;8.238;2022-09-29T05:32:17;9.15;;;4.82;;
12966;SDS011;6548;49.996;8.238;2022-09-29T05:34:43;5.95;;;4.68;;
12966;SDS011;6548;49.996;8.238;2022-09-29T05:37:09;5.45;;;4.43;;
12966;SDS011;6548;49.996;8.238;2022-09-29T05:39:34;6.97;;;5.15;;
12966;SDS011;6548;49.996;8.238;2022-09-29T05:42:01;8.32;;;6.05;;
12966;SDS011;6548;49.996;8.238;2022-09-29T05:44:33;8.13;;;5.97;;
12966;SDS011;6548;49.996;8.238;2022-09-29T05:46:59;9.07;;;6.72;;
12966;SDS011;6548;49.996;8.238;2022-09-29T05:49:25;10.23;;;6.28;;
12966;SDS011;6548;49.996;8.238;2022-09-29T05:51:50;8.20;;;4.68;;
12966;SDS011;6548;49.996;8.238;2022-09-29T05:54:16;8.77;;;5.63;;
12966;SDS011;6548;49.996;8.238;2022-09-29T05:56:42;8.65;;;5.40;;
12966;SDS011;6548;49.996;8.238;2022-09-29T05:59:08;6.03;;;4.63;;
12966;SDS011;6548;49.996;8.238;2022-09-29T06:01:34;6.72;;;4.05;;
12966;SDS011;6548;49.996;8.238;2022-09-29T06:03:59;6.05;;;4.28;;
12966;SDS011;6548;49.996;8.238;2022-09-29T06:06:26;7.05;;;4.47;;
12966;SDS011;6548;49.996;8.238;2022-09-29T06:08:52;9.63;;;5.82;;
12966;SDS011;6548;49.996;8.238;2022-09-29T06:11:20;5.47;;;4.50;;
12966;SDS011;6548;49.996;8.238;2022-09-29T06:13:48;8.25;;;4.35;;
12966;SDS011;6548;49.996;8.238;2022-09-29T06:16:15;8.73;;;4.85;;
12966;SDS011;6548;49.996;8.238;2022-09-29T06:18:42;14.63;;;4.95;;
12966;SDS011;6548;49.996;8.238;2022-09-29T06:21:09;6.88;;;4.97;;
12966;SDS011;6548;49.996;8.238;2022-09-29T06:23:36;7.63;;;5.75;;
12966;SDS011;6548;49.996;8.238;2022-09-29T06:26:03;6.07;;;5.00;;
12966;SDS011;6548;49.996;8.238;2022-09-29T06:28:31;6.90;;;5.35;;
12966;SDS011;6548;49.996;8.238;2022-09-29T06:30:57;5.88;;;4.82;;
12966;SDS011;6548;49.996;8.238;2022-09-29T06:33:30;7.72;;;5.43;;
12966;SDS011;6548;49.996;8.238;2022-09-29T06:35:57;8.07;;;5.32;;
12966;SDS011;6548;49.996;8.238;2022-09-29T06:38:44;7.72;;;5.35;;
12966;SDS011;6548;49.996;8.238;2022-09-29T06:41:11;7.95;;;5.15;;
12966;SDS011;6548;49.996;8.238;2022-09-29T06:43:37;7.63;;;5.32;;
12966;SDS011;6548;49.996;8.238;2022-09-29T06:46:02;6.35;;;4.78;;
12966;SDS011;6548;49.996;8.238;2022-09-29T06:48:28;5.57;;;4.22;;
12966;SDS011;6548;49.996;8.238;2022-09-29T06:50:54;6.57;;;4.80;;
12966;SDS011;6548;49.996;8.238;2022-09-29T06:53:20;8.02;;;4.53;;
12966;SDS011;6548;49.996;8.238;2022-09-29T06:55:53;9.30;;;5.95;;
12966;SDS011;6548;49.996;8.238;2022-09-29T06:58:20;10.55;;;6.90;;
12966;SDS011;6548;49.996;8.238;2022-09-29T07:00:46;13.02;;;6.55;;
12966;SDS011;6548;49.996;8.238;2022-09-29T07:03:12;16.95;;;8.40;;
12966;SDS011;6548;49.996;8.238;2022-09-29T07:05:38;31.17;;;9.43;;
12966;SDS011;6548;49.996;8.238;2022-09-29T07:08:03;25.85;;;9.05;;
12966;SDS011;6548;49.996;8.238;2022-09-29T07:10:29;19.10;;;8.50;;
12966;SDS011;6548;49.996;8.238;2022-09-29T07:12:55;12.20;;;6.93;;
12966;SDS011;6548;49.996;8.238;2022-09-29T07:15:20;12.52;;;6.70;;
12966;SDS011;6548;49.996;8.238;2022-09-29T07:17:49;17.52;;;9.25;;
12966;SDS011;6548;49.996;8.238;2022-09-29T07:20:15;12.85;;;7.78;;
12966;SDS011;6548;49.996;8.238;2022-09-29T07:22:41;12.02;;;7.13;;
12966;SDS011;6548;49.996;8.238;2022-09-29T07:25:10;11.20;;;6.68;;
12966;SDS011;6548;49.996;8.238;2022-09-29T07:27:36;11.52;;;6.75;;
12966;SDS011;6548;49.996;8.238;2022-09-29T07:30:01;12.32;;;7.30;;
12966;SDS011;6548;49.996;8.238;2022-09-29T07:32:28;23.73;;;10.32;;
12966;SDS011;6548;49.996;8.238;2022-09-29T07:34:56;19.85;;;11.07;;
12966;SDS011;6548;49.996;8.238;2022-09-29T07:37:22;21.35;;;11.45;;
12966;SDS011;6548;49.996;8.238;2022-09-29T07:39:48;17.75;;;10.40;;
12966;SDS011;6548;49.996;8.238;2022-09-29T07:42:14;24.25;;;11.75;;
12966;SDS011;6548;49.996;8.238;2022-09-29T07:44:42;25.13;;;12.02;;
12966;SDS011;6548;49.996;8.238;2022-09-29T07:47:07;20.70;;;10.77;;
12966;SDS011;6548;49.996;8.238;2022-09-29T07:49:33;25.55;;;14.32;;
12966;SDS011;6548;49.996;8.238;2022-09-29T07:51:59;21.05;;;11.23;;
12966;SDS011;6548;49.996;8.238;2022-09-29T07:54:24;22.70;;;11.02;;
12966;SDS011;6548;49.996;8.238;2022-09-29T07:56:50;19.95;;;11.00;;
12966;SDS011;6548;49.996;8.238;2022-09-29T07:59:16;20.02;;;11.23;;
12966;SDS011;6548;49.996;8.238;2022-09-29T08:01:42;22.13;;;10.27;;
12966;SDS011;6548;49.996;8.238;2022-09-29T08:04:07;20.27;;;11.85;;
12966;SDS011;6548;49.996;8.238;2022-09-29T08:06:33;19.73;;;11.65;;
12966;SDS011;6548;49.996;8.238;2022-09-29T08:08:59;20.65;;;11.52;;
12966;SDS011;6548;49.996;8.238;2022-09-29T08:11:26;18.95;;;10.98;;
12966;SDS011;6548;49.996;8.238;2022-09-29T08:13:52;21.17;;;12.23;;
12966;SDS011;6548;49.996;8.238;2022-09-29T08:16:18;21.02;;;11.98;;
12966;SDS011;6548;49.996;8.238;2022-09-29T08:18:44;20.13;;;11.77;;
12966;SDS011;6548;49.996;8.238;2022-09-29T08:21:10;23.90;;;12.32;;
12966;SDS011;6548;49.996;8.238;2022-09-29T08:23:39;24.77;;;12.32;;
12966;SDS011;6548;49.996;8.238;2022-09-29T08:26:06;21.70;;;12.73;;
12966;SDS011;6548;49.996;8.238;2022-09-29T08:28:34;19.80;;;12.45;;
12966;SDS011;6548;49.996;8.238;2022-09-29T08:31:02;26.58;;;13.02;;
12966;SDS011;6548;49.996;8.238;2022-09-29T08:33:28;21.75;;;13.30;;
12966;SDS011;6548;49.996;8.238;2022-09-29T08:35:57;21.60;;;11.75;;
12966;SDS011;6548;49.996;8.238;2022-09-29T08:38:24;21.02;;;12.18;;
12966;SDS011;6548;49.996;8.238;2022-09-29T08:40:51;24.10;;;11.38;;
12966;SDS011;6548;49.996;8.238;2022-09-29T08:43:22;21.35;;;11.65;;
12966;SDS011;6548;49.996;8.238;2022-09-29T08:45:58;22.27;;;12.32;;
12966;SDS011;6548;49.996;8.238;2022-09-29T08:48:34;21.58;;;13.32;;
12966;SDS011;6548;49.996;8.238;2022-09-29T08:51:11;20.38;;;11.85;;
12966;SDS011;6548;49.996;8.238;2022-09-29T08:53:49;22.17;;;13.13;;
12966;SDS011;6548;49.996;8.238;2022-09-29T08:56:18;24.63;;;12.90;;
12966;SDS011;6548;49.996;8.238;2022-09-29T08:58:44;22.05;;;12.80;;
12966;SDS011;6548;49.996;8.238;2022-09-29T09:01:20;20.70;;;11.90;;
12966;SDS011;6548;49.996;8.238;2022-09-29T09:07:33;18.73;;;12.25;;
12966;SDS011;6548;49.996;8.238;2022-09-29T09:10:17;20.27;;;13.65;;
12966;SDS011;6548;49.996;8.238;2022-09-29T09:13:03;25.98;;;13.18;;
12966;SDS011;6548;49.996;8.238;2022-09-29T09:21:06;21.45;;;13.80;;
12966;SDS011;6548;49.996;8.238;2022-09-29T09:23:52;21.38;;;12.45;;
12966;SDS011;6548;49.996;8.238;2022-09-29T09:26:43;20.58;;;13.10;;
12966;SDS011;6548;49.996;8.238;2022-09-29T09:29:30;21.45;;;13.00;;
12966;SDS011;6548;49.996;8.238;2022-09-29T09:32:07;21.02;;;13.38;;
12966;SDS011;6548;49.996;8.238;2022-09-29T09:34:46;19.77;;;13.23;;
12966;SDS011;6548;49.996;8.238;2022-09-29T09:39:57;22.08;;;12.38;;
12966;SDS011;6548;49.996;8.238;2022-09-29T09:42:41;18.33;;;11.52;;
12966;SDS011;6548;49.996;8.238;2022-09-29T09:45:17;16.27;;;11.85;;
12966;SDS011;6548;49.996;8.238;2022-09-29T09:48:06;20.58;;;10.68;;
12966;SDS011;6548;49.996;8.238;2022-09-29T09:50:40;22.90;;;12.45;;
12966;SDS011;6548;49.996;8.238;2022-09-29T09:53:21;17.70;;;11.80;;
12966;SDS011;6548;49.996;8.238;2022-09-29T10:01:24;19.75;;;12.07;;
12966;SDS011;6548;49.996;8.238;2022-09-29T10:03:51;18.17;;;10.63;;
12966;SDS011;6548;49.996;8.238;2022-09-29T10:06:16;19.38;;;11.90;;
12966;SDS011;6548;49.996;8.238;2022-09-29T10:08:42;15.88;;;10.80;;
12966;SDS011;6548;49.996;8.238;2022-09-29T10:11:15;15.50;;;9.68;;
12966;SDS011;6548;49.996;8.238;2022-09-29T10:13:47;18.35;;;9.90;;
12966;SDS011;6548;49.996;8.238;2022-09-29T10:16:19;13.77;;;10.02;;
12966;SDS011;6548;49.996;8.238;2022-09-29T10:18:53;18.80;;;11.50;;
12966;SDS011;6548;49.996;8.238;2022-09-29T10:21:27;13.60;;;11.10;;
12966;SDS011;6548;49.996;8.238;2022-09-29T10:24:00;19.65;;;10.60;;
12966;SDS011;6548;49.996;8.238;2022-09-29T10:26:40;19.40;;;12.45;;
12966;SDS011;6548;49.996;8.238;2022-09-29T10:29:24;16.33;;;11.40;;
12966;SDS011;6548;49.996;8.238;2022-09-29T10:32:04;18.02;;;11.73;;
12966;SDS011;6548;49.996;8.238;2022-09-29T10:37:42;20.60;;;12.25;;
12966;SDS011;6548;49.996;8.238;2022-09-29T10:40:16;17.10;;;11.95;;
12966;SDS011;6548;49.996;8.238;2022-09-29T10:42:45;19.95;;;11.35;;
12966;SDS011;6548;49.996;8.238;2022-09-29T10:47:44;19.23;;;12.68;;
12966;SDS011;6548;49.996;8.238;2022-09-29T10:50:34;21.30;;;13.10;;
12966;SDS011;6548;49.996;8.238;2022-09-29T10:53:45;22.05;;;12.93;;
12966;SDS011;6548;49.996;8.238;2022-09-29T10:58:51;22.45;;;13.02;;
12966;SDS011;6548;49.996;8.238;2022-09-29T11:01:22;18.00;;;12.13;;
12966;SDS011;6548;49.996;8.238;2022-09-29T11:04:00;19.23;;;12.40;;
12966;SDS011;6548;49.996;8.238;2022-09-29T11:06:30;19.50;;;12.65;;
12966;SDS011;6548;49.996;8.238;2022-09-29T11:09:03;17.65;;;11.27;;
12966;SDS011;6548;49.996;8.238;2022-09-29T11:11:35;17.55;;;10.25;;
12966;SDS011;6548;49.996;8.238;2022-09-29T11:14:02;14.40;;;10.43;;
12966;SDS011;6548;49.996;8.238;2022-09-29T11:16:35;15.30;;;10.32;;
12966;SDS011;6548;49.996;8.238;2022-09-29T11:35:47;13.18;;;8.88;;
12966;SDS011;6548;49.996;8.238;2022-09-29T11:40:53;14.35;;;9.88;;
12966;SDS011;6548;49.996;8.238;2022-09-29T11:43:52;13.38;;;9.77;;
12966;SDS011;6548;49.996;8.238;2022-09-29T11:46:49;11.60;;;8.02;;
12966;SDS011;6548;49.996;8.238;2022-09-29T11:49:34;12.27;;;8.02;;
12966;SDS011;6548;49.996;8.238;2022-09-29T11:52:24;12.88;;;8.35;;
12966;SDS011;6548;49.996;8.238;2022-09-29T12:03:20;13.05;;;7.80;;
12966;SDS011;6548;49.996;8.238;2022-09-29T12:05:49;14.32;;;7.88;;
12966;SDS011;6548;49.996;8.238;2022-09-29T12:11:31;13.80;;;7.53;;
12966;SDS011;6548;49.996;8.238;2022-09-29T12:14:20;9.18;;;7.60;;
12966;SDS011;6548;49.996;8.238;2022-09-29T12:17:10;10.52;;;6.70;;
12966;SDS011;6548;49.996;8.238;2022-09-29T12:19:39;12.18;;;8.27;;
12966;SDS011;6548;49.996;8.238;2022-09-29T12:22:08;9.52;;;6.45;;
12966;SDS011;6548;49.996;8.238;2022-09-29T12:24:39;12.52;;;7.10;;
12966;SDS011;6548;49.996;8.238;2022-09-29T12:27:17;9.35;;;6.75;;
12966;SDS011;6548;49.996;8.238;2022-09-29T12:29:52;12.43;;;7.55;;
12966;SDS011;6548;49.996;8.238;2022-09-29T12:32:34;11.38;;;7.43;;
12966;SDS011;6548;49.996;8.238;2022-09-29T12:35:08;12.13;;;7.00;;
12966;SDS011;6548;49.996;8.238;2022-09-29T12:40:28;10.73;;;7.47;;
12966;SDS011;6548;49.996;8.238;2022-09-29T12:49:22;11.35;;;8.43;;
12966;SDS011;6548;49.996;8.238;2022-09-29T12:51:55;10.05;;;6.90;;
12966;SDS011;6548;49.996;8.238;2022-09-29T12:55:03;8.73;;;6.50;;
12966;SDS011;6548;49.996;8.238;2022-09-29T12:57:18;10.30;;;6.95;;
12966;SDS011;6548;49.996;8.238;2022-09-29T13:13:19;11.15;;;5.65;;
12966;SDS011;6548;49.996;8.238;2022-09-29T13:27:46;12.23;;;5.45;;
12966;SDS011;6548;49.996;8.238;2022-09-29T13:30:16;8.38;;;5.72;;
12966;SDS011;6548;49.996;8.238;2022-09-29T13:32:46;7.78;;;5.20;;
12966;SDS011;6548;49.996;8.238;2022-09-29T13:35:18;10.70;;;5.25;;
12966;SDS011;6548;49.996;8.238;2022-09-29T13:37:55;5.97;;;4.53;;
12966;SDS011;6548;49.996;8.238;2022-09-29T13:40:27;11.85;;;6.00;;
12966;SDS011;6548;49.996;8.238;2022-09-29T13:42:54;11.38;;;5.47;;
12966;SDS011;6548;49.996;8.238;2022-09-29T13:53:53;9.10;;;6.15;;
12966;SDS011;6548;49.996;8.238;2022-09-29T14:01:03;8.65;;;5.60;;
12966;SDS011;6548;49.996;8.238;2022-09-29T14:08:54;9.73;;;5.75;;
12966;SDS011;6548;49.996;8.238;2022-09-29T14:22:02;9.80;;;6.03;;
12966;SDS011;6548;49.996;8.238;2022-09-29T14:27:19;7.32;;;4.78;;
12966;SDS011;6548;49.996;8.238;2022-09-29T14:32:51;9.23;;;5.28;;
12966;SDS011;6548;49.996;8.238;2022-09-29T14:52:45;7.07;;;4.72;;
12966;SDS011;6548;49.996;8.238;2022-09-29T14:58:29;10.80;;;5.15;;
12966;SDS011;6548;49.996;8.238;2022-09-29T15:03:43;7.10;;;4.60;;
12966;SDS011;6548;49.996;8.238;2022-09-29T15:08:41;7.78;;;4.30;;
12966;SDS011;6548;49.996;8.238;2022-09-29T15:11:23;8.90;;;4.78;;
12966;SDS011;6548;49.996;8.238;2022-09-29T15:13:53;6.60;;;3.95;;
12966;SDS011;6548;49.996;8.238;2022-09-29T15:16:30;6.55;;;3.83;;
12966;SDS011;6548;49.996;8.238;2022-09-29T15:25:09;3.75;;;2.90;;
12966;SDS011;6548;49.996;8.238;2022-09-29T15:28:00;6.25;;;3.35;;
12966;SDS011;6548;49.996;8.238;2022-09-29T15:30:33;4.85;;;3.67;;
12966;SDS011;6548;49.996;8.238;2022-09-29T15:33:20;8.18;;;4.03;;
12966;SDS011;6548;49.996;8.238;2022-09-29T15:35:49;6.60;;;3.83;;
12966;SDS011;6548;49.996;8.238;2022-09-29T15:40:51;6.32;;;3.45;;
12966;SDS011;6548;49.996;8.238;2022-09-29T15:43:22;7.13;;;3.67;;
12966;SDS011;6548;49.996;8.238;2022-09-29T15:45:57;4.97;;;3.47;;
12966;SDS011;6548;49.996;8.238;2022-09-29T15:48:36;7.63;;;3.70;;
12966;SDS011;6548;49.996;8.238;2022-09-29T15:51:01;9.63;;;3.92;;
12966;SDS011;6548;49.996;8.238;2022-09-29T15:53:28;5.57;;;2.78;;
12966;SDS011;6548;49.996;8.238;2022-09-29T15:55:55;5.28;;;3.53;;
12966;SDS011;6548;49.996;8.238;2022-09-29T15:58:33;6.07;;;3.28;;
12966;SDS011;6548;49.996;8.238;2022-09-29T16:01:06;5.57;;;3.08;;
12966;SDS011;6548;49.996;8.238;2022-09-29T16:06:27;7.70;;;3.20;;
12966;SDS011;6548;49.996;8.238;2022-09-29T16:08:54;5.30;;;2.50;;
12966;SDS011;6548;49.996;8.238;2022-09-29T16:11:30;4.43;;;2.75;;
12966;SDS011;6548;49.996;8.238;2022-09-29T16:14:08;5.30;;;2.65;;
12966;SDS011;6548;49.996;8.238;2022-09-29T16:16:46;6.35;;;3.00;;
12966;SDS011;6548;49.996;8.238;2022-09-29T16:21:51;4.13;;;1.83;;
12966;SDS011;6548;49.996;8.238;2022-09-29T16:24:19;7.60;;;2.70;;
12966;SDS011;6548;49.996;8.238;2022-09-29T16:26:52;3.22;;;2.13;;
12966;SDS011;6548;49.996;8.238;2022-09-29T16:32:38;2.38;;;1.65;;
12966;SDS011;6548;49.996;8.238;2022-09-29T16:38:08;3.65;;;1.90;;
12966;SDS011;6548;49.996;8.238;2022-09-29T16:40:47;6.25;;;1.92;;
12966;SDS011;6548;49.996;8.238;2022-09-29T16:43:23;4.57;;;2.47;;
12966;SDS011;6548;49.996;8.238;2022-09-29T16:45:54;3.85;;;2.05;;
12966;SDS011;6548;49.996;8.238;2022-09-29T16:48:23;3.92;;;1.65;;
12966;SDS011;6548;49.996;8.238;2022-09-29T16:50:58;3.67;;;2.58;;
12966;SDS011;6548;49.996;8.238;2022-09-29T16:55:57;3.25;;;2.10;;
12966;SDS011;6548;49.996;8.238;2022-09-29T16:58:25;5.18;;;4.10;;
12966;SDS011;6548;49.996;8.238;2022-09-29T17:00:52;5.40;;;2.03;;
12966;SDS011;6548;49.996;8.238;2022-09-29T17:03:17;3.40;;;1.63;;
12966;SDS011;6548;49.996;8.238;2022-09-29T17:05:43;4.18;;;2.03;;
12966;SDS011;6548;49.996;8.238;2022-09-29T17:08:14;4.85;;;2.10;;
12966;SDS011;6548;49.996;8.238;2022-09-29T17:10:43;4.15;;;1.85;;
12966;SDS011;6548;49.996;8.238;2022-09-29T17:13:12;5.68;;;2.20;;
12966;SDS011;6548;49.996;8.238;2022-09-29T17:15:39;5.28;;;2.80;;
12966;SDS011;6548;49.996;8.238;2022-09-29T17:18:12;3.50;;;2.15;;
12966;SDS011;6548;49.996;8.238;2022-09-29T17:20:38;6.82;;;2.53;;
12966;SDS011;6548;49.996;8.238;2022-09-29T17:23:04;6.22;;;2.72;;
12966;SDS011;6548;49.996;8.238;2022-09-29T17:25:30;5.82;;;2.35;;
12966;SDS011;6548;49.996;8.238;2022-09-29T17:27:57;4.47;;;2.53;;
12966;SDS011;6548;49.996;8.238;2022-09-29T17:30:44;4.97;;;2.50;;
12966;SDS011;6548;49.996;8.238;2022-09-29T17:33:12;5.18;;;2.58;;
12966;SDS011;6548;49.996;8.238;2022-09-29T17:35:40;4.50;;;2.20;;
12966;SDS011;6548;49.996;8.238;2022-09-29T17:38:09;4.80;;;2.72;;
12966;SDS011;6548;49.996;8.238;2022-09-29T17:40:53;3.47;;;2.00;;
12966;SDS011;6548;49.996;8.238;2022-09-29T17:43:21;5.60;;;2.42;;
12966;SDS011;6548;49.996;8.238;2022-09-29T17:45:48;3.40;;;2.20;;
12966;SDS011;6548;49.996;8.238;2022-09-29T17:48:14;4.75;;;2.42;;
12966;SDS011;6548;49.996;8.238;2022-09-29T17:50:43;4.13;;;2.47;;
12966;SDS011;6548;49.996;8.238;2022-09-29T17:53:11;3.63;;;2.10;;
12966;SDS011;6548;49.996;8.238;2022-09-29T17:55:39;6.13;;;2.70;;
12966;SDS011;6548;49.996;8.238;2022-09-29T17:58:05;4.93;;;3.42;;
12966;SDS011;6548;49.996;8.238;2022-09-29T18:00:36;6.40;;;4.32;;
12966;SDS011;6548;49.996;8.238;2022-09-29T18:03:06;6.17;;;3.10;;
12966;SDS011;6548;49.996;8.238;2022-09-29T18:05:40;4.60;;;3.33;;
12966;SDS011;6548;49.996;8.238;2022-09-29T18:08:09;4.82;;;3.65;;
12966;SDS011;6548;49.996;8.238;2022-09-29T18:10:39;5.75;;;4.20;;
12966;SDS011;6548;49.996;8.238;2022-09-29T18:13:08;5.05;;;2.97;;
12966;SDS011;6548;49.996;8.238;2022-09-29T18:15:34;8.35;;;3.38;;
12966;SDS011;6548;49.996;8.238;2022-09-29T18:18:01;6.30;;;3.38;;
12966;SDS011;6548;49.996;8.238;2022-09-29T18:20:29;5.95;;;3.40;;
12966;SDS011;6548;49.996;8.238;2022-09-29T18:22:56;6.35;;;3.13;;
12966;SDS011;6548;49.996;8.238;2022-09-29T18:25:26;4.50;;;2.83;;
12966;SDS011;6548;49.996;8.238;2022-09-29T18:27:53;11.63;;;3.55;;
12966;SDS011;6548;49.996;8.238;2022-09-29T18:30:20;3.97;;;3.45;;
12966;SDS011;6548;49.996;8.238;2022-09-29T18:32:50;4.78;;;2.75;;
12966;SDS011;6548;49.996;8.238;2022-09-29T18:35:22;5.25;;;3.63;;